EKAH/AAR METAR and TAF weather

Enter ICAO airport designator
Station Type Date Time Source
EKAH METAR 2020/10/20 17:20 UTC NOAA

EKAH 201720Z AUTO 18007KT 110V240 9999 FEW018/// FEW075/// BKN085/// 10/07 Q1005


Station Type Date Time Source
EKAH Decoded METAR 2020/10/20 17:20 UTC NOAA

Tirstrup, Denmark (EKAH) 56-18N 010-37E 25M
Oct 20, 2020 - 01:20 PM EDT / 2020.10.20 1720 UTC
Wind: from the S (180 degrees) at 8 MPH (7 KT) (direction variable):0
Visibility: greater than 7 mile(s):0
Sky conditions: mostly cloudy
Temperature: 50 F (10 C)
Dew Point: 44 F (7 C)
Relative Humidity: 81%
Pressure (altimeter): 29.68 in. Hg (1005 hPa)
ob: EKAH 201720Z AUTO 18007KT 110V240 9999 FEW018/// FEW075/// BKN085/// 10/07 Q1005
cycle: 17

Station Type Date Time Source
EKAH TAF 2020/10/20 18:30 UTC NOAA

TAF TAF EKAH 201706Z 2018/2118 19010KT 9999 BKN030
TEMPO 2020/2103 4000 -RADZ BR BKN008
BECMG 2103/2105 4000 BR BKN008
TEMPO 2105/2111 2000 BR BKN004
BECMG 2111/2113 1800 RADZ BR BKN004
TEMPO 2113/2118 5000 -RADZ BKN010

Example: see airport list